Boundless — WDJ4923 — position and weather

sailwx.info

Track history (hours):
 
Tides and Currents Weather Stations Pressure Air Temp Water Temp Dewpoint Dewpoint Depression Visibility Wind Speed Wind Dir Waves Ship Positions

Boundless

Owner: Sharpe, James D, Vienna, VA. More information available from US FCC via Universal Licensing System.

Last reported at 2017-Oct-18 18:47 UTC. Time now 2017-Oct-22 08:02 UTC.
Position N 38°58' W 076°29'.

Length 19 m.

Type: Sailing vessel. MMSI: 367782520.

Date/timePositionNaut miles runAvg speedWind from/ knotsBaromVisibWave heightAir tempDewpointWater temp
2017-Oct-18 18:47N 38°58' W 076°29'0 0.1
2017-Oct-18 18:28N 38°58' W 076°29'0 0.0
2017-Oct-18 17:58N 38°58' W 076°29'0 0.0
2017-Oct-18 17:28N 38°58' W 076°29'0 0.0
2017-Oct-18 16:58N 38°58' W 076°29'0 0.0
2017-Oct-16 17:19N 38°58' W 076°29'1 2.4
2017-Oct-16 17:00N 38°58' W 076°28'3 5.7
2017-Oct-16 16:30N 38°56' W 076°26'3 3.7
2017-Oct-16 15:49N 38°54' W 076°29'3 6.5
2017-Oct-16 15:20N 38°57' W 076°31'0 0.0
2017-Oct-15 20:36N 38°57' W 076°31'0 3.4
2017-Oct-15 20:30N 38°57' W 076°31'3 6.3
2017-Oct-15 20:00N 38°54' W 076°29'5 0.1
2017-Oct-13 17:35N 38°57' W 076°23'1 6.7
2017-Oct-13 17:30N 38°57' W 076°23'3 5.0
2017-Oct-13 17:00N 38°60' W 076°23'29 5.2
2017-Oct-13 11:24N 39°22' W 075°59'0 0.0
2017-Oct-12 17:42N 39°22' W 075°59'1 3.6
2017-Oct-12 17:24N 39°23' W 075°60'3 6.4
2017-Oct-12 17:00N 39°23' W 076°03'3 5.5
2017-Oct-12 16:23N 39°26' W 076°01'3 6.8
2017-Oct-12 16:01N 39°28' W 075°59'4 7.2
2017-Oct-12 15:30N 39°30' W 075°55'4 7.4
2017-Oct-12 15:00N 39°32' W 075°51'2 3.2
2017-Oct-12 14:28N 39°32' W 075°49'0 0.0
2017-Oct-11 19:15N 39°32' W 075°49'0 1.2
2017-Oct-11 19:00N 39°32' W 075°48'4 7.4
2017-Oct-11 18:30N 39°33' W 075°44'3 6.9
2017-Oct-11 18:01N 39°33' W 075°39'3 6.1
2017-Oct-11 17:30N 39°33' W 075°35'2 4.7
2017-Oct-11 17:00N 39°32' W 075°33'67 3.7
2017-Oct-10 22:46N 39°38' W 074°06'2 6.1
2017-Oct-10 22:26N 39°40' W 074°05'3 6.1
2017-Oct-10 22:00N 39°42' W 074°03'3 5.6
2017-Oct-10 21:29N 39°45' W 074°01'2 2.5
2017-Oct-10 20:32N 39°47' W 073°60'0 3.5
2017-Oct-10 20:29N 39°47' W 073°60'3 4.9
2017-Oct-10 19:58N 39°48' W 074°03'48 5.8
2017-Oct-10 11:43N 40°36' W 074°03'3 6.9
2017-Oct-10 11:15N 40°39' W 074°03'2 8.5
2017-Oct-10 11:00N 40°41' W 074°02'2 3.4
2017-Oct-10 10:29N 40°43' W 074°02'0 0.0
2017-Oct-10 09:59N 40°43' W 074°02'0 0.0
2017-Oct-10 09:31N 40°43' W 074°02'  
Track history (hours):
 
Tides and Currents Weather Stations Pressure Air Temp Water Temp Dewpoint Dewpoint Depression Visibility Wind Speed Wind Dir Waves Ship Positions

Boundless

Owner: Sharpe, James D, Vienna, VA. More information available from US FCC via Universal Licensing System.

Last reported at 2017-Oct-18 18:47 UTC. Time now 2017-Oct-22 08:02 UTC.
Position N 38°58' W 076°29'.

Length 19 m.

Type: Sailing vessel. MMSI: 367782520.

Date/timePositionNaut miles runAvg speedWind from/ knotsBaromVisibWave heightAir tempDewpointWater temp
2017-Oct-18 18:47N 38°58' W 076°29'0 0.1
2017-Oct-18 18:28N 38°58' W 076°29'0 0.0
2017-Oct-18 17:58N 38°58' W 076°29'0 0.0
2017-Oct-18 17:28N 38°58' W 076°29'0 0.0
2017-Oct-18 16:58N 38°58' W 076°29'0 0.0
2017-Oct-16 17:19N 38°58' W 076°29'1 2.4
2017-Oct-16 17:00N 38°58' W 076°28'3 5.7
2017-Oct-16 16:30N 38°56' W 076°26'3 3.7
2017-Oct-16 15:49N 38°54' W 076°29'3 6.5
2017-Oct-16 15:20N 38°57' W 076°31'0 0.0
2017-Oct-15 20:36N 38°57' W 076°31'0 3.4
2017-Oct-15 20:30N 38°57' W 076°31'3 6.3
2017-Oct-15 20:00N 38°54' W 076°29'5 0.1
2017-Oct-13 17:35N 38°57' W 076°23'1 6.7
2017-Oct-13 17:30N 38°57' W 076°23'3 5.0
2017-Oct-13 17:00N 38°60' W 076°23'29 5.2
2017-Oct-13 11:24N 39°22' W 075°59'0 0.0
2017-Oct-12 17:42N 39°22' W 075°59'1 3.6
2017-Oct-12 17:24N 39°23' W 075°60'3 6.4
2017-Oct-12 17:00N 39°23' W 076°03'3 5.5
2017-Oct-12 16:23N 39°26' W 076°01'3 6.8
2017-Oct-12 16:01N 39°28' W 075°59'4 7.2
2017-Oct-12 15:30N 39°30' W 075°55'4 7.4
2017-Oct-12 15:00N 39°32' W 075°51'2 3.2
2017-Oct-12 14:28N 39°32' W 075°49'0 0.0
2017-Oct-11 19:15N 39°32' W 075°49'0 1.2
2017-Oct-11 19:00N 39°32' W 075°48'4 7.4
2017-Oct-11 18:30N 39°33' W 075°44'3 6.9
2017-Oct-11 18:01N 39°33' W 075°39'3 6.1
2017-Oct-11 17:30N 39°33' W 075°35'2 4.7
2017-Oct-11 17:00N 39°32' W 075°33'67 3.7
2017-Oct-10 22:46N 39°38' W 074°06'2 6.1
2017-Oct-10 22:26N 39°40' W 074°05'3 6.1
2017-Oct-10 22:00N 39°42' W 074°03'3 5.6
2017-Oct-10 21:29N 39°45' W 074°01'2 2.5
2017-Oct-10 20:32N 39°47' W 073°60'0 3.5
2017-Oct-10 20:29N 39°47' W 073°60'3 4.9
2017-Oct-10 19:58N 39°48' W 074°03'48 5.8
2017-Oct-10 11:43N 40°36' W 074°03'3 6.9
2017-Oct-10 11:15N 40°39' W 074°03'2 8.5
2017-Oct-10 11:00N 40°41' W 074°02'2 3.4
2017-Oct-10 10:29N 40°43' W 074°02'0 0.0
2017-Oct-10 09:59N 40°43' W 074°02'0 0.0
2017-Oct-10 09:31N 40°43' W 074°02'  

Dump ship's entire track history